Архив погоды в Бикине

Метеограмма Бикин
Вторник, 23 Мая
Время местн. Темп Ветер Видим Явления Облачность нижн/средн/верх Атм. давл. Влжн Точка росы ВНГО R Сост. почвы Tg s
Напр Скр Прв ур.ст ур.м изм
10:00 +8.6° Ю,Ю-В 2 - 10 км слабый непрерывный дождь облачно 752 758 -1.1 91% +7.2° 1 км - - - -
07:00 +7.5° штиль 0 - 10 км слабый непрерывный дождь облачно 753 759 -1.6 91% +6.1° 1 км 4 Влажная (без луж) +9° -
04:00 +7.9° С 1 - 20 км - облачно 754 760 0 78% +4.3° 1 км - - - -
01:00 +8.2° С-В 1 - 20 км - облачно 754 760 -1.5 71% +3.2° более 2.5 км - - - -
Понедельник, 22 Мая
Время местн. Темп Ветер Видим Явления Облачность нижн/средн/верх Атм. давл. Влжн Точка росы ВНГО R Сост. почвы Tg s
Напр Скр Прв ур.ст ур.м изм
22:00 +10° В 1 - 20 км - облачно 756 762 -0.2 58% +2.1° более 2.5 км - - - -
19:00 +16° штиль 0 - более 50 км - облачно 756 762 -1.1 22% -5.4° более 2.5 км 0 - - -
16:00 +16.7° З,С-З 1 - более 50 км - облачно 757 763 -1.5 22% -5.2° более 2.5 км - - - -
13:00 +15.8° С 2 - более 50 км - облачно 759 765 -1.1 23% -5.5° более 2.5 км - - - -
10:00 +12.1° З,С-З 1 - более 50 км - облачно 760 766 -0.1 48% +1.3° более 2.5 км - - - -
07:00 +6.6° штиль 0 - более 50 км - облачно 760 766 +0.9 79% +3.3° более 2.5 км 0 Сухая (без трещин) +7° -
04:00 +6.6° штиль 0 - 20 км - облачно 759 765 +0.7 75% +2.5° более 2.5 км - - - -
01:00 +9.4° Ю 1 - 20 км - облачно 758 764 +0.5 60% +2° более 2.5 км - - - -
Воскресенье, 21 Мая
Время местн. Темп Ветер Видим Явления Облачность нижн/средн/верх Атм. давл. Влжн Точка росы ВНГО R Сост. почвы Tg s
Напр Скр Прв ур.ст ур.м изм
22:00 +13° С 1 - 20 км - облачно 757 764 +1.2 39% -0.5° более 2.5 км - - - -
19:00 +16.1° С 2 - более 50 км - облачно 756 762 -0.3 28% -2.3° более 2.5 км 0 - - -
16:00 +17.6° С 3 - более 50 км - облачно 757 763 -0.7 26% -2° более 2.5 км - - - -
13:00 +17.2° С 3 - более 50 км - облачно 757 763 -0.2 31% -0.2° 1 км - - - -
10:00 +14.3° С 1 - более 50 км - облачно 757 764 +0.8 73% +9.5° 1 км - - - -
07:00 +11.9° штиль 0 - 20 км - облачно 757 763 +0.6 86% +9.7° 1 км 0 Сухая (без трещин) +13° -
04:00 +12.5° штиль 0 - 20 км - облачно 756 762 +0.1 81% +9.4° 1 км - - - -
01:00 +14.6° Ю-З 2 - 20 км - облачно 756 762 +0.1 62% +7.5° 1 км - - - -
Суббота, 20 Мая
Время местн. Темп Ветер Видим Явления Облачность нижн/средн/верх Атм. давл. Влжн Точка росы ВНГО R Сост. почвы Tg s
Напр Скр Прв ур.ст ур.м изм
22:00 +16.3° С-З 1 - 20 км - облачно 756 762 +0.8 46% +4.7° 1 км - - - -
19:00 +19° С,С-З 3 - более 50 км - облачно 755 761 -0.2 30% +1.2° 1 км 0 - - -
16:00 +21.4° С 3 - более 50 км - переменная облачность 756 761 -0.8 24% более 2.5 км - - - -
13:00 +19.6° С 3 - более 50 км - преимущественно облачно 756 762 +0.2 22% -2.7° более 2.5 км - - - -
10:00 +16.2° С 3 - более 50 км - преимущественно облачно 756 762 +1.4 38% +1.7° более 2.5 км - - - -
07:00 +12.1° С 3 - 20 км - облачно 755 761 +1.8 55% +3.3° более 2.5 км 0 Сухая (без трещин) +10° -